Cordova, AK (99574)

11:23 PM AKDT on August 27, 2014 (GMT -0800)
Cordova-Smith | Change Station
CLOSE
Current Station
Airport
Location: Cordova,
Elevation: 43 ft
Nearby Weather Stations

Elev 43 ft 60.49 °N, 145.45 °W | Updated 30 minutes ago

Overcast
Overcast
53 °F
Feels Like 53 °F
N
6
Wind Variable Wind from ENE

Today
High -- | Low -- °F
--% Chance of Precip.
Yesterday
High -- | Low -- °F
Precip. -- in
6:24 AM 9:02 PM
Waxing Crescent, 7% visible
Pressure 29.90 in
Visibility 10.0 miles
Clouds Scattered Clouds 4300 ft
Mostly Cloudy 6000 ft
Overcast 7000 ft
Dew Point 46 °F
Humidity 77%
Rainfall 0.15 in
Snow Depth Not available.
UV 0 out of 12
Pollen Not available.
Air Quality Not available.
Flu Activity Not available.
METAR PACV 280653Z 06005KT 10SM SCT043 BKN060 OVC070 12/08 A2989 RMK AO2 RAB23E32 SLP123 P0000 T01170078

More Conditions Fewer Conditions

Pressure 29.90 in
Visibility 10.0 miles
Clouds Scattered Clouds 4300 ft
Mostly Cloudy 6000 ft
Overcast 7000 ft
Dew Point 46 °F
Humidity 77%
Rainfall 0.15 in
Snow Depth Not available.
UV 0 out of 12
Pollen Not available.
Air Quality Not available.
Flu Activity Not available.
METAR PACV 280653Z 06005KT 10SM SCT043 BKN060 OVC070 12/08 A2989 RMK AO2 RAB23E32 SLP123 P0000 T01170078

More Conditions Fewer Conditions

10-Day Weather Forecast

Almanac

Astronomy

Aug. 27, 2014 Rise Set
Actual Time 6:24 AM AKDT 9:02 PM AKDT
Civil Twilight 5:37 AM AKDT 9:49 PM AKDT
Nautical Twilight 4:33 AM AKDT 10:52 PM AKDT
Astronomical Twilight 2:57 AM AKDT 12:24 AM AKDT
Moon 9:14 AM AKDT (8/27) 9:08 PM AKDT (8/27)
Length of Visible Light 16h 12m
Length of Day
14h 37m
Tomorrow will be 5m 29s shorter.
Waxing Crescent, 7% of the Moon is Illuminated
Aug 28
Waxing Crescent
Sep 2
First Quarter
Sep 8
Full
Sep 15
Last Quarter
Sep 24
New

Community

WunderPhotos

Upload Photos

1,747,912 photos uploaded!

Nearby

Snow Depth

Station Depth Elevation
Upper Tsaina River 0 in 1750 ft
Moraine 0 in 2100 ft
Grandview 7 in 1100 ft
Turnagain Pass 2 in 1880 ft
Grouse Creek Divide 1 in 700 ft

Earthquake Activity

City Distance Mag. Time & Date
No recent earthquake activity has been reported nearby.
Minimum magnitude displayed is 2.5.

Coastal Water Temperatures

Place Temperature
No Stations Reporting

Nearby Weather Stations